Time;durP1;ratioP1;P1;durP2;ratioP2;P2;SDS_P1;SDS_P2;PMS_P1;PMS_P2;Temp;Humidity;BMP_temperature;BMP_pressure;BME280_temperature;BME280_humidity;BME280_pressure;Samples;Min_cycle;Max_cycle;Signal;HPM_P1;HPM_P2
2022/04/12 00:00:21;;;;;;;2.95;2.20;;;;;;;;;;5073711;28;20029;-78
2022/04/12 00:02:47;;;;;;;2.40;2.20;;;;;;;;;;5057240;28;20446;-77
2022/04/12 00:05:12;;;;;;;2.40;2.20;;;;;;;;;;5075535;28;20036;-77
2022/04/12 00:07:42;;;;;;;3.83;2.00;;;;;;;;;;5075536;28;20102;-77
2022/04/12 00:10:08;;;;;;;12.50;2.15;;;;;;;;;;5075704;28;20032;-78
2022/04/12 00:12:35;;;;;;;2.95;2.20;;;;;;;;;;5074001;28;20024;-77
2022/04/12 00:15:01;;;;;;;2.10;1.90;;;;;;;;;;5057360;28;20032;-78
2022/04/12 00:20:12;;;;;;;2.90;2.38;;;;;;;;;;5075452;28;20040;-77
2022/04/12 00:22:39;;;;;;;2.75;2.03;;;;;;;;;;5056880;28;20029;-77
2022/04/12 00:25:08;;;;;;;3.05;2.30;;;;;;;;;;5057848;28;20059;-77
2022/04/12 00:27:33;;;;;;;4.25;2.28;;;;;;;;;;5057676;28;20032;-77
2022/04/12 00:29:58;;;;;;;3.45;2.40;;;;;;;;;;5075442;28;20150;-77
2022/04/12 00:32:24;;;;;;;2.95;2.03;;;;;;;;;;5073687;28;20070;-77
2022/04/12 00:34:49;;;;;;;2.50;2.20;;;;;;;;;;5073688;28;20032;-77
2022/04/12 00:37:15;;;;;;;2.60;2.13;;;;;;;;;;5073816;28;20067;-77
2022/04/12 00:39:40;;;;;;;3.72;2.47;;;;;;;;;;5056781;28;20029;-77
2022/04/12 00:42:06;;;;;;;3.05;2.40;;;;;;;;;;5056818;28;20028;-77
2022/04/12 00:44:31;;;;;;;3.08;2.10;;;;;;;;;;5075213;28;20459;-78
2022/04/12 00:46:57;;;;;;;2.50;2.30;;;;;;;;;;5056596;28;20476;-77
2022/04/12 00:49:25;;;;;;;2.40;2.20;;;;;;;;;;5073226;28;20379;-77
2022/04/12 00:51:51;;;;;;;3.50;2.55;;;;;;;;;;5073305;28;20032;-77
2022/04/12 00:54:19;;;;;;;3.13;2.15;;;;;;;;;;5057260;28;20075;-77
2022/04/12 00:56:47;;;;;;;3.70;2.78;;;;;;;;;;5073133;28;20056;-78
2022/04/12 00:59:13;;;;;;;6.15;2.65;;;;;;;;;;5074470;28;20043;-77
2022/04/12 01:01:38;;;;;;;2.85;2.35;;;;;;;;;;5056696;28;20029;-78
2022/04/12 01:04:04;;;;;;;3.13;2.20;;;;;;;;;;5074396;28;20468;-77
2022/04/12 01:06:29;;;;;;;2.10;1.88;;;;;;;;;;5073123;28;20039;-78
2022/04/12 01:08:54;;;;;;;1.85;1.63;;;;;;;;;;5056619;28;20032;-78
2022/04/12 01:11:20;;;;;;;2.85;1.83;;;;;;;;;;5072092;28;20020;-78
2022/04/12 01:13:46;;;;;;;2.97;1.90;;;;;;;;;;5073174;28;20151;-78
2022/04/12 01:16:11;;;;;;;2.70;1.98;;;;;;;;;;5074050;28;20332;-78
2022/04/12 01:18:37;;;;;;;1.83;1.73;;;;;;;;;;5073012;28;20168;-77
2022/04/12 01:21:03;;;;;;;1.88;1.70;;;;;;;;;;5055990;28;20032;-78
2022/04/12 01:23:40;;;;;;;2.75;2.00;;;;;;;;;;5073909;28;20035;-78
2022/04/12 01:26:06;;;;;;;2.40;1.98;;;;;;;;;;5072403;28;20055;-78
2022/04/12 01:28:31;;;;;;;2.38;1.83;;;;;;;;;;5055750;28;20028;-78
2022/04/12 01:30:57;;;;;;;3.22;1.75;;;;;;;;;;5055719;28;20090;-78
2022/04/12 01:33:22;;;;;;;2.10;1.88;;;;;;;;;;5072347;28;20039;-77
2022/04/12 01:35:47;;;;;;;2.95;2.10;;;;;;;;;;5073654;28;20028;-78
2022/04/12 01:38:13;;;;;;;2.30;1.75;;;;;;;;;;5072498;28;20365;-77
2022/04/12 01:40:38;;;;;;;3.63;2.10;;;;;;;;;;5073828;28;20029;-78
2022/04/12 01:43:04;;;;;;;2.50;1.90;;;;;;;;;;5073409;28;20029;-78
2022/04/12 01:45:29;;;;;;;2.55;1.90;;;;;;;;;;5072153;28;20043;-78
2022/04/12 01:47:56;;;;;;;2.78;2.20;;;;;;;;;;5072366;28;20119;-78
2022/04/12 01:50:21;;;;;;;2.53;1.80;;;;;;;;;;5072444;28;20020;-77
2022/04/12 01:52:47;;;;;;;2.60;2.10;;;;;;;;;;5055538;28;20044;-77
2022/04/12 01:55:14;;;;;;;1.80;1.60;;;;;;;;;;5072435;28;20035;-77
2022/04/12 01:57:39;;;;;;;2.13;1.80;;;;;;;;;;5073628;28;20020;-77
2022/04/12 02:00:06;;;;;;;2.03;1.83;;;;;;;;;;5055117;28;20455;-77
2022/04/12 02:02:31;;;;;;;2.08;1.80;;;;;;;;;;5071883;28;20483;-78
2022/04/12 02:04:57;;;;;;;3.10;2.20;;;;;;;;;;5072145;28;20030;-77
2022/04/12 02:07:22;;;;;;;3.30;2.10;;;;;;;;;;5071888;28;20068;-77
2022/04/12 02:09:47;;;;;;;2.35;1.95;;;;;;;;;;5071887;28;20032;-78
2022/04/12 02:12:13;;;;;;;2.00;1.80;;;;;;;;;;5055025;28;20105;-78
2022/04/12 02:14:38;;;;;;;3.65;2.00;;;;;;;;;;5073269;28;20063;-78
2022/04/12 02:17:04;;;;;;;2.65;2.00;;;;;;;;;;5073017;28;20063;-79
2022/04/12 02:19:29;;;;;;;2.22;2.03;;;;;;;;;;5054824;28;20078;-77
2022/04/12 02:21:54;;;;;;;2.95;2.10;;;;;;;;;;5071616;28;20447;-78
2022/04/12 02:24:20;;;;;;;2.88;2.10;;;;;;;;;;5073175;28;20035;-78
2022/04/12 02:26:45;;;;;;;4.32;2.22;;;;;;;;;;5090647;28;20130;-77
2022/04/12 02:29:13;;;;;;;3.13;2.40;;;;;;;;;;5058273;28;20032;-77
2022/04/12 02:31:40;;;;;;;2.45;2.13;;;;;;;;;;5093211;28;20477;-78
2022/04/12 02:34:05;;;;;;;2.53;2.10;;;;;;;;;;5075259;28;20039;-78
2022/04/12 02:36:31;;;;;;;4.32;2.63;;;;;;;;;;5041525;28;20028;-77
2022/04/12 02:38:56;;;;;;;3.92;2.33;;;;;;;;;;5075140;28;20024;-78
2022/04/12 02:41:21;;;;;;;2.60;2.13;;;;;;;;;;5074735;28;20497;-78
2022/04/12 02:43:47;;;;;;;4.78;2.45;;;;;;;;;;5074670;28;20395;-78
2022/04/12 02:46:12;;;;;;;2.38;1.90;;;;;;;;;;5075109;28;20090;-78
2022/04/12 02:48:37;;;;;;;2.25;2.05;;;;;;;;;;5058220;28;20032;-78
2022/04/12 02:51:03;;;;;;;2.03;1.80;;;;;;;;;;5041351;28;20140;-78
2022/04/12 02:53:28;;;;;;;2.47;2.08;;;;;;;;;;5057802;28;20028;-78
2022/04/12 02:55:54;;;;;;;2.83;2.40;;;;;;;;;;5092624;28;20446;-78
2022/04/12 02:58:19;;;;;;;2.33;1.92;;;;;;;;;;5075147;28;20451;-78
2022/04/12 03:00:44;;;;;;;3.08;2.20;;;;;;;;;;5092913;28;20043;-78
2022/04/12 03:03:10;;;;;;;4.72;2.35;;;;;;;;;;5074485;28;20081;-77
2022/04/12 03:05:35;;;;;;;2.40;2.20;;;;;;;;;;5074518;28;20039;-78
2022/04/12 03:08:01;;;;;;;3.33;2.17;;;;;;;;;;5092381;28;20534;-78
2022/04/12 03:10:27;;;;;;;3.03;1.75;;;;;;;;;;5075061;28;20028;-79
2022/04/12 03:12:52;;;;;;;2.83;1.83;;;;;;;;;;5093400;28;20085;-77
2022/04/12 03:15:18;;;;;;;2.92;1.95;;;;;;;;;;5074650;28;20028;-78
2022/04/12 03:17:43;;;;;;;10.40;2.05;;;;;;;;;;5058151;28;20032;-77
2022/04/12 03:20:09;;;;;;;3.05;2.30;;;;;;;;;;5075083;28;20162;-77
2022/04/12 03:22:35;;;;;;;2.63;2.03;;;;;;;;;;5074502;28;20059;-78
2022/04/12 03:25:01;;;;;;;2.92;1.80;;;;;;;;;;5074704;28;20055;-78
2022/04/12 03:27:27;;;;;;;3.05;2.30;;;;;;;;;;5092399;28;20031;-77
2022/04/12 03:29:52;;;;;;;2.47;2.00;;;;;;;;;;5041122;28;20085;-77
2022/04/12 03:32:18;;;;;;;2.90;2.00;;;;;;;;;;5092292;28;20417;-77
2022/04/12 03:34:45;;;;;;;2.00;1.80;;;;;;;;;;5075766;28;20028;-78
2022/04/12 03:37:11;;;;;;;3.30;2.10;;;;;;;;;;5077805;28;20028;-77
2022/04/12 03:39:36;;;;;;;5.45;2.30;;;;;;;;;;5096466;28;20039;-78
2022/04/12 03:42:04;;;;;;;2.83;2.13;;;;;;;;;;5077885;28;20035;-77
2022/04/12 03:44:29;;;;;;;3.35;2.28;;;;;;;;;;5078258;28;20491;-78
2022/04/12 03:46:55;;;;;;;2.75;2.10;;;;;;;;;;5078034;28;20086;-77
2022/04/12 03:49:20;;;;;;;3.38;2.10;;;;;;;;;;5061285;28;20039;-77
2022/04/12 03:51:45;;;;;;;2.80;2.15;;;;;;;;;;5078008;28;20099;-77
2022/04/12 03:54:11;;;;;;;2.45;2.10;;;;;;;;;;5096315;28;20064;-78
2022/04/12 03:56:36;;;;;;;3.63;1.90;;;;;;;;;;5060974;28;20032;-78
2022/04/12 03:59:02;;;;;;;3.33;2.28;;;;;;;;;;5095965;28;20032;-78
2022/04/12 04:01:28;;;;;;;2.78;2.00;;;;;;;;;;5096042;28;20111;-77
2022/04/12 04:03:56;;;;;;;2.53;2.00;;;;;;;;;;5060882;28;20127;-77
2022/04/12 04:06:22;;;;;;;5.28;2.00;;;;;;;;;;5061581;28;20052;-77
2022/04/12 04:08:47;;;;;;;3.05;1.80;;;;;;;;;;5060648;28;20081;-77
2022/04/12 04:11:12;;;;;;;3.70;2.30;;;;;;;;;;5095535;28;20039;-77
2022/04/12 04:13:38;;;;;;;4.13;2.20;;;;;;;;;;5060800;28;20036;-76
2022/04/12 04:16:04;;;;;;;4.47;2.40;;;;;;;;;;5096023;28;20107;-76
2022/04/12 04:18:29;;;;;;;6.07;2.53;;;;;;;;;;5060593;28;20030;-76
2022/04/12 04:20:55;;;;;;;5.90;2.63;;;;;;;;;;5060507;28;20033;-77
2022/04/12 04:23:21;;;;;;;4.65;2.22;;;;;;;;;;5095162;28;20028;-78
2022/04/12 04:25:47;;;;;;;4.50;2.30;;;;;;;;;;5095269;28;20059;-78
2022/04/12 04:28:12;;;;;;;6.20;2.40;;;;;;;;;;5076953;28;20438;-78
2022/04/12 04:30:39;;;;;;;4.15;2.33;;;;;;;;;;5095339;28;20435;-78
2022/04/12 04:33:07;;;;;;;8.45;2.30;;;;;;;;;;5077062;28;20107;-79
2022/04/12 04:35:32;;;;;;;7.55;2.95;;;;;;;;;;5076764;28;20035;-80
2022/04/12 04:37:57;;;;;;;9.88;2.85;;;;;;;;;;5076815;28;20024;-80
2022/04/12 04:40:23;;;;;;;7.38;2.63;;;;;;;;;;5076750;28;20111;-79
2022/04/12 04:42:51;;;;;;;6.93;2.80;;;;;;;;;;5059856;28;20039;-79
2022/04/12 04:45:16;;;;;;;5.32;2.60;;;;;;;;;;5094946;28;20024;-78
2022/04/12 04:47:48;;;;;;;7.60;3.03;;;;;;;;;;5060252;28;20035;-79
2022/04/12 04:50:14;;;;;;;5.25;2.67;;;;;;;;;;5094979;28;20042;-78
2022/04/12 04:52:39;;;;;;;9.82;3.40;;;;;;;;;;5080980;28;20032;-83
2022/04/12 04:55:05;;;;;;;13.55;4.35;;;;;;;;;;5101259;28;20032;-83
2022/04/12 04:57:30;;;;;;;18.60;4.65;;;;;;;;;;5083049;28;20127;-82
2022/04/12 04:59:56;;;;;;;14.88;4.90;;;;;;;;;;5065893;28;20128;-86
2022/04/12 05:02:23;;;;;;;20.65;4.82;;;;;;;;;;5100676;28;20020;-82
2022/04/12 05:04:48;;;;;;;18.20;4.93;;;;;;;;;;5079311;28;20069;-83
2022/04/12 05:07:14;;;;;;;14.73;4.43;;;;;;;;;;5078021;28;20139;-84
2022/04/12 05:09:39;;;;;;;15.02;4.90;;;;;;;;;;5077174;28;20043;-84
2022/04/12 05:12:05;;;;;;;14.85;4.78;;;;;;;;;;5098188;28;20023;-84
2022/04/12 05:14:30;;;;;;;13.32;5.07;;;;;;;;;;5096432;28;20081;-82
2022/04/12 05:16:56;;;;;;;17.98;5.18;;;;;;;;;;5060966;28;20031;-83
2022/04/12 05:19:21;;;;;;;11.50;4.10;;;;;;;;;;5077007;28;20032;-83
2022/04/12 05:21:47;;;;;;;13.43;4.47;;;;;;;;;;5060143;28;20046;-82
2022/04/12 05:24:12;;;;;;;9.90;3.83;;;;;;;;;;5075974;28;20118;-83
2022/04/12 05:26:38;;;;;;;10.05;3.67;;;;;;;;;;5094663;28;20154;-82
2022/04/12 05:29:04;;;;;;;10.65;3.92;;;;;;;;;;5075982;28;20052;-83
2022/04/12 05:31:29;;;;;;;11.48;4.40;;;;;;;;;;5077165;28;20028;-83
2022/04/12 05:33:54;;;;;;;15.45;3.60;;;;;;;;;;5077139;28;20389;-82
2022/04/12 05:36:20;;;;;;;12.18;4.07;;;;;;;;;;5076463;28;20032;-82
2022/04/12 05:38:45;;;;;;;11.43;3.88;;;;;;;;;;5077217;28;20036;-81
2022/04/12 05:41:10;;;;;;;9.80;3.38;;;;;;;;;;5094443;28;20024;-82
2022/04/12 05:43:36;;;;;;;8.43;3.28;;;;;;;;;;5078032;28;20039;-82
2022/04/12 05:46:02;;;;;;;11.00;3.72;;;;;;;;;;5060855;28;20028;-81
2022/04/12 05:48:27;;;;;;;8.85;3.33;;;;;;;;;;5078546;28;20032;-83
2022/04/12 05:50:52;;;;;;;7.28;3.10;;;;;;;;;;5077574;28;20059;-84
2022/04/12 05:53:20;;;;;;;8.63;2.90;;;;;;;;;;5059560;28;20398;-83
2022/04/12 05:55:46;;;;;;;7.88;3.55;;;;;;;;;;5059063;28;20028;-83
2022/04/12 05:58:11;;;;;;;7.63;3.05;;;;;;;;;;5094029;28;20020;-83
2022/04/12 06:00:36;;;;;;;6.32;2.90;;;;;;;;;;5076147;28;20385;-82
2022/04/12 06:03:05;;;;;;;9.38;3.22;;;;;;;;;;5076169;28;20028;-83
2022/04/12 06:05:32;;;;;;;10.05;3.22;;;;;;;;;;5075852;28;20040;-83
2022/04/12 06:07:59;;;;;;;6.20;2.83;;;;;;;;;;5093734;28;20024;-84
2022/04/12 06:10:25;;;;;;;8.50;3.05;;;;;;;;;;5059627;28;20124;-83
2022/04/12 06:12:51;;;;;;;7.47;2.78;;;;;;;;;;5075347;28;20067;-83
2022/04/12 06:15:17;;;;;;;5.60;2.90;;;;;;;;;;5075232;28;20038;-83
2022/04/12 06:17:43;;;;;;;3.95;2.30;;;;;;;;;;5093161;28;20024;-83
2022/04/12 06:20:11;;;;;;;4.40;2.50;;;;;;;;;;5058128;28;20093;-83
2022/04/12 06:22:37;;;;;;;3.40;2.40;;;;;;;;;;5093241;28;20055;-83
2022/04/12 06:25:03;;;;;;;4.10;2.42;;;;;;;;;;5059117;28;20044;-82
2022/04/12 06:27:33;;;;;;;5.22;2.50;;;;;;;;;;5074946;28;20051;-83
2022/04/12 06:30:14;;;;;;;3.78;2.20;;;;;;;;;;5059602;28;20048;-82
2022/04/12 06:32:41;;;;;;;5.55;2.60;;;;;;;;;;5077187;28;20044;-82
2022/04/12 06:35:09;;;;;;;5.00;2.30;;;;;;;;;;5077175;28;20046;-82
2022/04/12 06:37:34;;;;;;;5.22;2.55;;;;;;;;;;5063150;28;20106;-82
2022/04/12 06:40:00;;;;;;;5.80;2.50;;;;;;;;;;5078859;28;20036;-82
2022/04/12 06:42:26;;;;;;;4.70;2.30;;;;;;;;;;5075438;28;20030;-83
2022/04/12 06:44:51;;;;;;;5.45;2.53;;;;;;;;;;5062748;28;20135;-83
2022/04/12 06:47:17;;;;;;;3.33;2.00;;;;;;;;;;5062915;28;20023;-83
2022/04/12 06:49:47;;;;;;;3.00;2.13;;;;;;;;;;5059331;28;20040;-84
2022/04/12 06:52:13;;;;;;;4.53;2.30;;;;;;;;;;5075058;28;20054;-82
2022/04/12 06:54:39;;;;;;;17.05;2.40;;;;;;;;;;5043503;28;20117;-85
2022/04/12 06:57:06;;;;;;;5.47;1.92;;;;;;;;;;5058574;28;20028;-83
2022/04/12 06:59:32;;;;;;;4.00;1.88;;;;;;;;;;5058834;28;20479;-82
2022/04/12 07:01:58;;;;;;;4.00;1.80;;;;;;;;;;5075493;28;20044;-81
2022/04/12 07:04:23;;;;;;;3.13;1.70;;;;;;;;;;5075314;28;20036;-84
2022/04/12 07:06:48;;;;;;;3.00;1.95;;;;;;;;;;5041628;28;20092;-83
2022/04/12 07:09:18;;;;;;;4.20;2.30;;;;;;;;;;5075777;28;20039;-82
2022/04/12 07:11:45;;;;;;;5.75;1.90;;;;;;;;;;5063013;28;20417;-85
2022/04/12 07:14:10;;;;;;;3.60;2.00;;;;;;;;;;5078232;28;20420;-85
2022/04/12 07:16:35;;;;;;;2.70;1.58;;;;;;;;;;5096630;28;20222;-81
2022/04/12 07:19:01;;;;;;;4.95;1.85;;;;;;;;;;5096924;28;20035;-81
2022/04/12 07:21:29;;;;;;;3.40;1.73;;;;;;;;;;5078265;28;20027;-85
2022/04/12 07:23:55;;;;;;;4.68;1.92;;;;;;;;;;5062808;28;20028;-83
2022/04/12 07:26:20;;;;;;;3.53;1.90;;;;;;;;;;5078856;28;20135;-83
2022/04/12 07:28:46;;;;;;;5.85;2.00;;;;;;;;;;5078494;28;20146;-83
2022/04/12 07:31:11;;;;;;;3.28;1.80;;;;;;;;;;5078272;28;20024;-82
2022/04/12 07:33:37;;;;;;;5.55;1.60;;;;;;;;;;5060923;28;20032;-82
2022/04/12 07:36:03;;;;;;;4.30;1.88;;;;;;;;;;5078484;28;20032;-84
2022/04/12 07:38:28;;;;;;;4.40;1.65;;;;;;;;;;5078412;28;20034;-82
2022/04/12 07:40:53;;;;;;;5.00;2.00;;;;;;;;;;5096718;28;20036;-84
2022/04/12 07:43:19;;;;;;;6.10;1.70;;;;;;;;;;5078172;28;20024;-84
2022/04/12 07:45:44;;;;;;;2.38;1.48;;;;;;;;;;5061078;28;20478;-83
2022/04/12 07:48:10;;;;;;;3.60;1.70;;;;;;;;;;5077614;28;20028;-83
2022/04/12 07:50:35;;;;;;;4.68;1.77;;;;;;;;;;5060885;28;20368;-82
2022/04/12 07:53:01;;;;;;;4.13;2.00;;;;;;;;;;5044276;28;20070;-83
2022/04/12 07:55:26;;;;;;;6.30;1.73;;;;;;;;;;5077775;28;20137;-83
2022/04/12 07:57:51;;;;;;;5.15;2.03;;;;;;;;;;5095329;28;20028;-83
2022/04/12 08:00:17;;;;;;;2.70;1.80;;;;;;;;;;5077295;28;20043;-83
2022/04/12 08:02:42;;;;;;;1.98;1.55;;;;;;;;;;5095388;28;20390;-83
2022/04/12 08:05:08;;;;;;;3.80;1.70;;;;;;;;;;5077276;28;20394;-83
2022/04/12 08:07:34;;;;;;;1.73;1.50;;;;;;;;;;5078210;28;20382;-83
2022/04/12 08:09:59;;;;;;;4.20;1.67;;;;;;;;;;5047012;28;20090;-83
2022/04/12 08:12:25;;;;;;;4.35;1.70;;;;;;;;;;5067733;28;20504;-83
2022/04/12 08:14:50;;;;;;;2.95;1.73;;;;;;;;;;5084391;28;20417;-83
2022/04/12 08:17:16;;;;;;;4.72;2.03;;;;;;;;;;5083389;28;20455;-82
2022/04/12 08:19:42;;;;;;;2.03;1.60;;;;;;;;;;5083045;28;20116;-82
2022/04/12 08:22:09;;;;;;;9.32;2.40;;;;;;;;;;5050138;28;20119;-82
2022/04/12 08:24:36;;;;;;;4.53;1.60;;;;;;;;;;5068464;28;20100;-82
2022/04/12 08:27:04;;;;;;;6.50;1.60;;;;;;;;;;5086002;28;20044;-83
2022/04/12 08:29:30;;;;;;;3.03;1.50;;;;;;;;;;5054789;28;20032;-82
2022/04/12 08:31:56;;;;;;;5.00;1.60;;;;;;;;;;5072042;28;20024;-82
2022/04/12 08:34:22;;;;;;;2.20;1.40;;;;;;;;;;5071245;28;20035;-82
2022/04/12 08:36:47;;;;;;;4.43;1.63;;;;;;;;;;5070958;28;20024;-82
2022/04/12 08:39:15;;;;;;;2.75;1.70;;;;;;;;;;5106442;28;20114;-82
2022/04/12 08:41:41;;;;;;;6.65;2.50;;;;;;;;;;5086800;28;20050;-82
2022/04/12 08:44:07;;;;;;;4.43;1.83;;;;;;;;;;5101486;28;20471;-83
2022/04/12 08:46:33;;;;;;;5.18;2.20;;;;;;;;;;5082647;28;20036;-81
2022/04/12 08:48:58;;;;;;;4.90;2.03;;;;;;;;;;5082135;28;20028;-82
2022/04/12 08:51:27;;;;;;;5.38;2.38;;;;;;;;;;5081188;28;20466;-82
2022/04/12 08:53:56;;;;;;;4.78;2.00;;;;;;;;;;5066636;28;20058;-79
2022/04/12 08:56:22;;;;;;;3.15;1.70;;;;;;;;;;5063286;28;20416;-79
2022/04/12 08:58:48;;;;;;;9.85;2.63;;;;;;;;;;5063476;28;20029;-83
2022/04/12 09:01:13;;;;;;;4.03;1.80;;;;;;;;;;5099398;28;20035;-82
2022/04/12 09:03:38;;;;;;;3.25;1.90;;;;;;;;;;5080378;28;20028;-82
2022/04/12 09:06:04;;;;;;;2.95;1.90;;;;;;;;;;5047657;28;20048;-83
2022/04/12 09:08:31;;;;;;;9.18;1.92;;;;;;;;;;5083263;28;20115;-83
2022/04/12 09:11:07;;;;;;;7.43;2.10;;;;;;;;;;5047966;28;20043;-83
2022/04/12 09:13:33;;;;;;;7.45;2.15;;;;;;;;;;5064481;28;20050;-83
2022/04/12 09:15:59;;;;;;;4.85;2.22;;;;;;;;;;5063872;28;20095;-84
2022/04/12 09:18:36;;;;;;;7.22;2.10;;;;;;;;;;5065111;28;20063;-83
2022/04/12 09:21:18;;;;;;;6.38;2.30;;;;;;;;;;5063304;28;20024;-81
2022/04/12 09:23:55;;;;;;;3.13;1.85;;;;;;;;;;5080595;28;20024;-80
2022/04/12 09:26:33;;;;;;;3.33;1.85;;;;;;;;;;5060096;28;20053;-80
2022/04/12 09:29:02;;;;;;;4.35;2.05;;;;;;;;;;5061911;28;20020;-84
2022/04/12 09:31:28;;;;;;;3.50;1.90;;;;;;;;;;5076037;28;20021;-82
2022/04/12 09:33:55;;;;;;;4.80;2.05;;;;;;;;;;5059522;28;20020;-81
2022/04/12 09:36:21;;;;;;;5.07;2.03;;;;;;;;;;5075530;28;20082;-81
2022/04/12 09:38:47;;;;;;;5.15;1.83;;;;;;;;;;5060153;28;20033;-81
2022/04/12 09:41:22;;;;;;;6.40;2.10;;;;;;;;;;5058900;28;20042;-81
2022/04/12 09:44:07;;;;;;;4.35;1.90;;;;;;;;;;5059157;28;20135;-82
2022/04/12 09:46:37;;;;;;;3.33;1.88;;;;;;;;;;5060986;28;20108;-81
2022/04/12 09:49:02;;;;;;;2.22;1.70;;;;;;;;;;5074935;28;20082;-82
2022/04/12 09:51:28;;;;;;;3.55;1.55;;;;;;;;;;5055572;28;20029;-81
2022/04/12 09:53:54;;;;;;;8.27;1.80;;;;;;;;;;5073126;28;20052;-82
2022/04/12 09:56:31;;;;;;;2.25;1.70;;;;;;;;;;5073337;28;20067;-82
2022/04/12 09:58:59;;;;;;;3.78;1.73;;;;;;;;;;5056308;28;20064;-82
2022/04/12 10:01:25;;;;;;;2.10;1.52;;;;;;;;;;5055083;28;20024;-81
2022/04/12 10:03:53;;;;;;;2.17;1.60;;;;;;;;;;5056069;28;20024;-81
2022/04/12 10:06:20;;;;;;;2.95;1.85;;;;;;;;;;5071801;28;20028;-81
2022/04/12 10:08:50;;;;;;;4.07;2.08;;;;;;;;;;5072019;28;20036;-81
2022/04/12 10:11:16;;;;;;;4.60;1.42;;;;;;;;;;5055445;28;20060;-81
2022/04/12 10:13:42;;;;;;;2.65;1.70;;;;;;;;;;5071744;28;20511;-81
2022/04/12 10:16:08;;;;;;;4.53;1.70;;;;;;;;;;5054481;28;20025;-81
2022/04/12 10:18:33;;;;;;;2.17;1.50;;;;;;;;;;5071686;28;20037;-81
2022/04/12 10:21:00;;;;;;;1.58;1.25;;;;;;;;;;5056213;28;20035;-82
2022/04/12 10:23:26;;;;;;;2.95;1.38;;;;;;;;;;5073983;28;20471;-81
2022/04/12 10:25:56;;;;;;;2.72;1.70;;;;;;;;;;5081371;28;20055;-80
2022/04/12 10:28:23;;;;;;;3.05;1.83;;;;;;;;;;5059895;28;20028;-82
2022/04/12 10:30:49;;;;;;;1.60;1.38;;;;;;;;;;5060256;28;20034;-82
2022/04/12 10:33:15;;;;;;;2.60;1.60;;;;;;;;;;5094969;28;20107;-82
2022/04/12 10:35:51;;;;;;;3.08;1.50;;;;;;;;;;5094920;28;20074;-82
2022/04/12 10:38:18;;;;;;;2.20;1.45;;;;;;;;;;5076619;28;20485;-82
2022/04/12 10:40:49;;;;;;;2.17;1.40;;;;;;;;;;5076119;28;20485;-84
2022/04/12 10:43:15;;;;;;;1.80;1.30;;;;;;;;;;5076708;28;20429;-83
2022/04/12 10:45:48;;;;;;;2.42;1.38;;;;;;;;;;5076778;28;20071;-83
2022/04/12 10:48:24;;;;;;;2.30;1.42;;;;;;;;;;5077083;28;20035;-83
2022/04/12 10:50:52;;;;;;;2.55;1.40;;;;;;;;;;5058916;28;20034;-83
2022/04/12 10:53:36;;;;;;;1.70;1.30;;;;;;;;;;5074651;28;20020;-83
2022/04/12 10:56:05;;;;;;;;;;;;;;;;;;5094524;28;20382;-83
2022/04/12 10:58:33;;;;;;;1.85;1.48;;;;;;;;;;5076060;28;20434;-82
2022/04/12 11:00:59;;;;;;;3.67;1.70;;;;;;;;;;5076320;28;20028;-84
2022/04/12 11:03:45;;;;;;;2.30;1.85;;;;;;;;;;5076977;28;20107;-81
2022/04/12 11:06:18;;;;;;;1.42;1.27;;;;;;;;;;5079490;28;20060;-82
2022/04/12 11:08:49;;;;;;;3.90;1.60;;;;;;;;;;5080949;28;20052;-82
2022/04/12 11:11:22;;;;;;;2.72;1.50;;;;;;;;;;5099288;28;20032;-83
2022/04/12 11:13:49;;;;;;;3.55;1.23;;;;;;;;;;5090234;28;20032;-83
2022/04/12 11:16:20;;;;;;;3.33;1.40;;;;;;;;;;5071515;28;20028;-83
2022/04/12 11:18:56;;;;;;;1.45;1.35;;;;;;;;;;5070816;28;20039;-82
2022/04/12 11:21:27;;;;;;;3.60;1.40;;;;;;;;;;5070502;28;20063;-83
2022/04/12 11:23:59;;;;;;;2.78;1.38;;;;;;;;;;5088273;28;20020;-83
2022/04/12 11:26:48;;;;;;;4.65;1.55;;;;;;;;;;5083356;28;20041;-83
2022/04/12 11:29:16;;;;;;;1.30;1.20;;;;;;;;;;5083087;28;20021;-83
2022/04/12 11:31:53;;;;;;;1.65;1.30;;;;;;;;;;5085705;28;20021;-83
2022/04/12 11:34:19;;;;;;;1.80;1.40;;;;;;;;;;5082152;28;20024;-82
2022/04/12 11:36:54;;;;;;;2.45;1.30;;;;;;;;;;5081729;28;20053;-83
2022/04/12 11:39:43;;;;;;;1.45;1.27;;;;;;;;;;5079931;28;20032;-83
2022/04/12 11:42:11;;;;;;;3.47;1.40;;;;;;;;;;5081447;28;20151;-81
2022/04/12 11:44:36;;;;;;;3.03;1.52;;;;;;;;;;5082751;28;20021;-82
2022/04/12 11:47:09;;;;;;;6.43;1.75;;;;;;;;;;5081922;28;20081;-81
2022/04/12 11:49:42;;;;;;;3.17;1.50;;;;;;;;;;5079954;28;20052;-82
2022/04/12 11:52:10;;;;;;;2.40;1.40;;;;;;;;;;5082126;28;20154;-82
2022/04/12 11:54:36;;;;;;;4.53;1.75;;;;;;;;;;5066746;28;20028;-81
2022/04/12 11:57:07;;;;;;;2.20;1.60;;;;;;;;;;5086484;28;20039;-82
2022/04/12 11:59:54;;;;;;;3.13;1.45;;;;;;;;;;5086726;28;20016;-82
2022/04/12 12:02:31;;;;;;;3.67;1.40;;;;;;;;;;5088763;28;20028;-82
2022/04/12 12:04:59;;;;;;;2.72;1.40;;;;;;;;;;5090434;28;20027;-82
2022/04/12 12:07:26;;;;;;;1.90;1.30;;;;;;;;;;5090328;28;20052;-82
2022/04/12 12:09:56;;;;;;;2.03;1.25;;;;;;;;;;5071826;28;20036;-82
2022/04/12 12:12:44;;;;;;;2.25;1.38;;;;;;;;;;5088330;28;20078;-82
2022/04/12 12:15:16;;;;;;;3.00;1.42;;;;;;;;;;5090116;28;20024;-82
2022/04/12 12:17:44;;;;;;;5.70;1.38;;;;;;;;;;5089112;28;20028;-82
2022/04/12 12:20:10;;;;;;;1.35;1.20;;;;;;;;;;5054624;28;20029;-82
2022/04/12 12:22:37;;;;;;;1.30;1.17;;;;;;;;;;5070689;28;20038;-80
2022/04/12 12:25:03;;;;;;;2.97;1.50;;;;;;;;;;5087381;28;20147;-81
2022/04/12 12:27:37;;;;;;;1.50;1.25;;;;;;;;;;5086080;28;20082;-83
2022/04/12 12:30:10;;;;;;;;;;;;;;;;;;5064535;28;20052;-80
2022/04/12 12:32:38;;;;;;;4.38;1.75;;;;;;;;;;5059902;28;19975;-82
2022/04/12 12:35:06;;;;;;;14.80;2.08;;;;;;;;;;5076041;28;20028;-84
2022/04/12 12:37:31;;;;;;;5.38;1.77;;;;;;;;;;5077819;28;20379;-81
2022/04/12 12:39:57;;;;;;;3.15;1.77;;;;;;;;;;5078645;28;20032;-80
2022/04/12 12:42:22;;;;;;;3.47;1.75;;;;;;;;;;5074168;28;20492;-79
2022/04/12 12:44:48;;;;;;;3.55;1.60;;;;;;;;;;5074683;28;20435;-82
2022/04/12 12:47:14;;;;;;;3.58;1.70;;;;;;;;;;5057101;28;20063;-83
2022/04/12 12:49:41;;;;;;;4.43;1.80;;;;;;;;;;5056742;28;20058;-84
2022/04/12 12:52:08;;;;;;;3.22;1.52;;;;;;;;;;5056537;28;20078;-83
2022/04/12 12:54:34;;;;;;;4.85;1.65;;;;;;;;;;5057443;28;20489;-83
2022/04/12 12:57:01;;;;;;;6.25;1.60;;;;;;;;;;5056411;28;20038;-84
2022/04/12 12:59:34;;;;;;;2.90;1.75;;;;;;;;;;5073393;28;20474;-83
2022/04/12 13:02:11;;;;;;;3.35;1.60;;;;;;;;;;5073720;28;20033;-82
2022/04/12 13:04:38;;;;;;;3.13;1.85;;;;;;;;;;5076921;28;20039;-80
2022/04/12 13:07:06;;;;;;;3.17;1.77;;;;;;;;;;5078102;28;20029;-82
2022/04/12 13:09:33;;;;;;;2.38;1.70;;;;;;;;;;5081537;28;20086;-79
2022/04/12 13:11:59;;;;;;;5.22;1.65;;;;;;;;;;5079725;28;20020;-80
2022/04/12 13:14:25;;;;;;;2.42;1.50;;;;;;;;;;5061340;28;20025;-82
2022/04/12 13:16:50;;;;;;;4.55;1.70;;;;;;;;;;5062049;28;20539;-80
2022/04/12 13:19:30;;;;;;;4.88;1.80;;;;;;;;;;5060040;28;20046;-80
2022/04/12 13:21:58;;;;;;;2.65;1.60;;;;;;;;;;5060063;28;20017;-82
2022/04/12 13:24:23;;;;;;;2.95;1.88;;;;;;;;;;5059281;28;20029;-81
2022/04/12 13:26:50;;;;;;;5.25;1.50;;;;;;;;;;5075929;28;20055;-81
2022/04/12 13:29:16;;;;;;;2.60;1.60;;;;;;;;;;5043477;28;20036;-81
2022/04/12 13:31:41;;;;;;;2.20;1.70;;;;;;;;;;5060886;28;20349;-82
2022/04/12 13:34:07;;;;;;;4.10;1.55;;;;;;;;;;5077911;28;20032;-82
2022/04/12 13:36:32;;;;;;;1.83;1.30;;;;;;;;;;5044435;28;20033;-82
2022/04/12 13:38:58;;;;;;;2.50;1.50;;;;;;;;;;5078175;28;20048;-82
2022/04/12 13:41:23;;;;;;;3.10;1.45;;;;;;;;;;5074797;28;20032;-83
2022/04/12 13:43:49;;;;;;;3.65;1.50;;;;;;;;;;5060088;28;20100;-84
2022/04/12 13:46:14;;;;;;;2.35;1.42;;;;;;;;;;5058739;28;20367;-83
2022/04/12 13:48:41;;;;;;;2.25;1.50;;;;;;;;;;5059529;28;20174;-83
2022/04/12 13:51:09;;;;;;;2.05;1.40;;;;;;;;;;5042293;28;20028;-84
2022/04/12 13:53:35;;;;;;;2.80;1.63;;;;;;;;;;5043449;28;20054;-84
2022/04/12 13:56:01;;;;;;;2.42;1.55;;;;;;;;;;5076399;28;20043;-83
2022/04/12 13:58:26;;;;;;;7.35;1.70;;;;;;;;;;5077515;28;20029;-84
2022/04/12 14:00:51;;;;;;;2.20;1.60;;;;;;;;;;5042793;28;20025;-83
2022/04/12 14:03:20;;;;;;;3.45;1.60;;;;;;;;;;5058853;28;20068;-83
2022/04/12 14:05:46;;;;;;;2.42;1.42;;;;;;;;;;5075284;28;20103;-83
2022/04/12 14:08:12;;;;;;;2.65;1.65;;;;;;;;;;5060620;28;20043;-84
2022/04/12 14:10:39;;;;;;;4.63;1.52;;;;;;;;;;5077163;28;20051;-83
2022/04/12 14:13:05;;;;;;;19.00;2.00;;;;;;;;;;5045836;28;20052;-81
2022/04/12 14:15:32;;;;;;;2.40;1.55;;;;;;;;;;5060919;28;20071;-83
2022/04/12 14:17:58;;;;;;;1.83;1.52;;;;;;;;;;5077630;28;20138;-82
2022/04/12 14:20:24;;;;;;;4.05;1.80;;;;;;;;;;5039037;28;20119;-83
2022/04/12 14:22:49;;;;;;;2.25;1.65;;;;;;;;;;5072132;28;20377;-83
2022/04/12 14:25:15;;;;;;;4.00;1.80;;;;;;;;;;5056211;28;20063;-83
2022/04/12 14:27:41;;;;;;;2.33;1.50;;;;;;;;;;5056573;28;20063;-84
2022/04/12 14:30:07;;;;;;;2.33;1.67;;;;;;;;;;5055276;28;20108;-84
2022/04/12 14:32:32;;;;;;;4.40;2.17;;;;;;;;;;5054495;28;20028;-83
2022/04/12 14:34:58;;;;;;;4.00;1.80;;;;;;;;;;5071685;28;20029;-82
2022/04/12 14:37:23;;;;;;;1.80;1.60;;;;;;;;;;5038081;28;20434;-83
2022/04/12 14:39:49;;;;;;;5.53;1.60;;;;;;;;;;5056450;28;20035;-84
2022/04/12 14:42:14;;;;;;;2.05;1.70;;;;;;;;;;5039336;28;20483;-83
2022/04/12 14:44:40;;;;;;;2.78;1.95;;;;;;;;;;5039822;28;20111;-82